Time;durP1;ratioP1;P1;durP2;ratioP2;P2;SDS_P1;SDS_P2;PMS_P1;PMS_P2;Temp;Humidity;BMP_temperature;BMP_pressure;BME280_temperature;BME280_humidity;BME280_pressure;Samples;Min_cycle;Max_cycle;Signal;HPM_P1;HPM_P2
2021/12/18 00:02:14;;;;;;;8.20;4.63;;;5.60;99.90;;;5.44;77.32;103258.06;4939772;29;20270;-65
2021/12/18 00:04:45;;;;;;;8.05;3.95;;;5.50;99.90;;;5.54;77.01;103261.78;4948423;23;20292;-66
2021/12/18 00:07:14;;;;;;;6.35;4.75;;;5.50;99.90;;;5.46;77.47;103256.13;4927602;29;20188;-68
2021/12/18 00:09:43;;;;;;;6.85;5.05;;;5.50;99.90;;;5.59;77.00;103262.31;4936480;29;20247;-68
2021/12/18 00:12:11;;;;;;;10.48;5.25;;;5.50;99.90;;;5.54;77.09;103252.88;4936460;29;20229;-68
2021/12/18 00:14:39;;;;;;;6.68;5.28;;;5.50;99.90;;;5.53;77.16;103251.16;4941791;29;20295;-66
2021/12/18 00:17:08;;;;;;;5.25;4.75;;;5.50;99.90;;;5.48;77.18;103254.16;4955559;28;20192;-68
2021/12/18 00:19:39;;;;;;;7.78;5.78;;;5.50;99.90;;;5.62;77.36;103245.97;4954327;28;20231;-67
2021/12/18 00:22:09;;;;;;;7.40;5.20;;;5.50;99.90;;;5.37;77.58;103250.56;4955324;28;20621;-68
2021/12/18 00:24:37;;;;;;;7.70;5.50;;;5.50;99.90;;;5.57;77.57;103245.44;4954834;28;20733;-67
2021/12/18 00:27:06;;;;;;;9.48;5.55;;;5.50;99.90;;;5.78;77.58;103245.69;4954921;28;20537;-67
2021/12/18 00:29:35;;;;;;;9.85;6.10;;;5.60;99.90;;;5.87;76.55;103244.16;4953393;28;20192;-70
2021/12/18 00:32:04;;;;;;;9.60;4.60;;;5.70;99.90;;;5.73;77.20;103237.13;4954554;28;20219;-67
2021/12/18 00:34:32;;;;;;;8.88;5.90;;;5.70;99.90;;;5.83;76.90;103231.91;4954396;28;20231;-67
2021/12/18 00:37:00;;;;;;;9.73;7.60;;;5.70;99.90;;;5.69;77.66;103233.81;4954420;28;20227;-68
2021/12/18 00:39:32;;;;;;;11.02;6.85;;;5.60;99.90;;;5.83;77.49;103226.53;4954566;28;20198;-66
2021/12/18 00:42:08;;;;;;;9.32;6.05;;;5.70;99.90;;;5.70;78.22;103231.97;4952858;29;20216;-68
2021/12/18 00:44:38;;;;;;;6.65;5.55;;;5.70;99.90;;;5.77;77.92;103233.22;4954176;28;20670;-68
2021/12/18 00:47:07;;;;;;;13.15;7.00;;;5.70;99.90;;;5.76;77.42;103233.34;4954114;28;20188;-69
2021/12/18 00:49:35;;;;;;;13.68;5.63;;;5.70;99.90;;;5.85;76.93;103241.59;4953223;28;20291;-68
2021/12/18 00:52:05;;;;;;;5.53;4.40;;;5.80;99.90;;;5.38;78.44;103239.69;4954288;28;20196;-67
2021/12/18 00:54:37;;;;;;;9.63;5.63;;;5.60;99.90;;;5.46;78.95;103245.38;4953918;28;20227;-67
2021/12/18 00:57:06;;;;;;;8.35;5.93;;;5.50;99.90;;;5.60;78.52;103236.31;4953740;28;20188;-68
2021/12/18 00:59:35;;;;;;;6.57;5.10;;;5.60;99.90;;;5.78;77.60;103245.69;4953861;28;20197;-67
2021/12/18 01:02:04;;;;;;;5.82;4.45;;;5.70;99.90;;;5.85;77.51;103246.09;4954154;28;20196;-69
2021/12/18 01:04:33;;;;;;;6.45;4.75;;;5.70;99.90;;;5.84;76.85;103249.75;4954032;28;20215;-68
2021/12/18 01:07:01;;;;;;;8.75;5.63;;;5.80;99.90;;;5.83;78.08;103253.41;4954177;28;20192;-68
2021/12/18 01:09:45;;;;;;;4.28;3.70;;;5.80;99.90;;;5.92;77.56;103255.44;4954245;28;20184;-68
2021/12/18 01:12:14;;;;;;;5.15;3.92;;;5.80;99.90;;;5.93;77.50;103259.84;4954147;28;20191;-66
2021/12/18 01:15:00;;;;;;;6.90;3.47;;;5.80;99.90;;;5.91;77.60;103261.78;4952606;29;20255;-65
2021/12/18 01:23:01;;;;;;;4.82;4.38;;;5.80;99.90;;;5.92;78.13;103266.19;4953469;28;20436;-66
2021/12/18 01:25:29;;;;;;;7.70;4.13;;;5.90;99.90;;;5.93;78.25;103267.91;4953309;28;20303;-68
2021/12/18 01:27:59;;;;;;;5.32;3.90;;;5.90;99.90;;;6.04;77.38;103257.22;4953768;28;20676;-67
2021/12/18 01:30:27;;;;;;;5.43;4.13;;;5.90;99.90;;;5.98;77.66;103255.00;4953906;28;20200;-66
2021/12/18 01:32:56;;;;;;;3.80;2.70;;;5.90;99.90;;;6.02;77.97;103248.41;4954051;28;20188;-66
2021/12/18 01:35:25;;;;;;;6.40;3.40;;;5.90;99.90;;;5.86;78.58;103247.78;4953855;28;20207;-68
2021/12/18 01:37:53;;;;;;;4.72;3.50;;;5.90;99.90;;;5.84;78.17;103241.69;4953792;28;20629;-68
2021/12/18 01:40:23;;;;;;;4.90;3.72;;;5.80;99.90;;;5.85;78.41;103241.59;4954180;28;20199;-68
2021/12/18 01:46:01;;;;;;;4.78;3.67;;;5.80;99.90;;;5.77;78.67;103221.59;4953590;28;20599;-66
2021/12/18 01:51:46;;;;;;;8.13;3.65;;;5.70;99.90;;;5.69;79.60;103216.81;4913398;29;20205;-65
2021/12/18 01:54:15;;;;;;;4.95;3.65;;;5.70;99.90;;;5.63;79.37;103210.06;4913090;29;20765;-68
2021/12/18 01:56:44;;;;;;;6.32;4.38;;;5.60;99.90;;;5.71;79.71;103208.66;4936550;28;20673;-69
2021/12/18 01:59:12;;;;;;;4.50;3.38;;;5.70;99.90;;;5.71;79.63;103205.97;4955153;28;20603;-68
2021/12/18 02:01:42;;;;;;;5.30;3.47;;;5.70;99.90;;;5.61;79.89;103205.78;4957377;28;20681;-67
2021/12/18 02:04:10;;;;;;;4.15;3.50;;;5.60;99.90;;;5.71;79.71;103212.22;4958178;28;20203;-66
2021/12/18 02:06:39;;;;;;;6.88;3.83;;;5.60;99.90;;;5.75;79.92;103210.13;4963112;28;20263;-68
2021/12/18 02:09:07;;;;;;;5.25;3.80;;;5.70;99.90;;;5.77;79.71;103217.09;4964555;28;20199;-68
2021/12/18 02:11:36;;;;;;;8.63;3.65;;;5.70;99.90;;;5.73;79.99;103226.38;4964926;28;20211;-67
2021/12/18 02:14:36;;;;;;;4.93;4.18;;;5.70;99.90;;;5.83;79.77;103221.16;4963272;28;20561;-67
2021/12/18 02:20:21;;;;;;;6.32;3.92;;;5.70;99.90;;;5.74;80.16;103221.84;4959460;28;20219;-68
2021/12/18 02:22:49;;;;;;;6.07;4.25;;;5.70;99.90;;;5.62;79.88;103221.78;4958627;28;20608;-66
2021/12/18 02:25:20;;;;;;;5.43;3.85;;;5.60;99.90;;;5.80;79.96;103218.72;4958822;28;20207;-68
2021/12/18 02:27:49;;;;;;;4.75;3.92;;;5.70;99.90;;;5.85;79.75;103228.16;4958933;28;20665;-67
2021/12/18 02:30:20;;;;;;;5.75;4.10;;;5.80;99.90;;;5.76;79.81;103223.44;4958294;28;20192;-67
2021/12/18 02:32:50;;;;;;;9.98;3.90;;;5.70;99.90;;;5.86;80.22;103226.28;4958503;28;20569;-67
2021/12/18 02:35:29;;;;;;;7.32;4.25;;;5.70;99.90;;;5.62;80.25;103221.78;4959263;28;20631;-65
2021/12/18 02:38:09;;;;;;;6.90;4.50;;;5.70;99.90;;;5.64;80.70;103222.53;4958941;28;20192;-70
2021/12/18 02:43:26;;;;;;;7.53;4.53;;;5.70;99.90;;;5.80;79.99;103218.72;4959399;28;20242;-67
2021/12/18 02:45:59;;;;;;;4.88;3.95;;;5.80;99.90;;;5.90;79.25;103217.09;4959289;28;20215;-68
2021/12/18 02:48:30;;;;;;;5.97;3.92;;;5.80;99.90;;;5.76;79.64;103214.53;4960431;28;20204;-68
2021/12/18 02:51:00;;;;;;;7.40;5.13;;;5.80;99.90;;;5.84;79.44;103212.13;4959664;28;20715;-67
2021/12/18 02:53:29;;;;;;;6.53;5.45;;;5.80;99.90;;;5.87;79.44;103222.66;4959770;28;20191;-68
2021/12/18 02:56:00;;;;;;;9.27;4.10;;;5.80;99.90;;;5.74;79.55;103214.66;4959054;28;20247;-68
2021/12/18 02:58:28;;;;;;;7.30;4.40;;;5.70;99.90;;;5.71;80.13;103211.34;4958785;28;20205;-68
2021/12/18 03:01:00;;;;;;;7.90;4.28;;;5.70;99.90;;;5.70;80.07;103215.84;4960033;28;20203;-69
2021/12/18 03:03:32;;;;;;;4.65;3.88;;;5.70;99.90;;;5.78;80.06;103202.69;4960865;28;20553;-67
2021/12/18 03:06:19;;;;;;;6.15;4.35;;;5.70;99.90;;;5.68;80.52;103209.72;4961089;28;20223;-67
2021/12/18 03:08:55;;;;;;;8.43;5.07;;;5.70;99.90;;;5.57;80.33;103210.53;4960881;28;20207;-67
2021/12/18 03:23:04;;;;;;;5.28;4.40;;;5.90;99.90;;;5.96;79.42;103189.72;4960473;28;20215;-67
2021/12/18 03:25:35;;;;;;;5.10;4.60;;;5.80;99.90;;;6.00;79.39;103185.84;4963663;28;20506;-68
2021/12/18 03:28:05;;;;;;;5.28;3.80;;;5.90;99.90;;;5.94;79.17;103187.16;4964691;28;20186;-67
2021/12/18 03:30:34;;;;;;;5.10;3.90;;;5.90;99.90;;;5.91;79.67;103191.91;4962814;28;20188;-67
2021/12/18 03:33:04;;;;;;;7.50;4.95;;;5.90;99.90;;;5.73;80.27;103182.50;4963167;28;20198;-69
2021/12/18 03:35:33;;;;;;;8.77;5.40;;;5.80;99.90;;;5.55;80.83;103185.63;4962654;28;20635;-67
2021/12/18 03:38:03;;;;;;;7.25;4.72;;;5.70;99.90;;;5.62;81.31;103176.09;4963544;28;20192;-67
2021/12/18 03:40:32;;;;;;;7.30;5.45;;;5.60;99.90;;;5.81;79.96;103180.97;4963379;28;20188;-67
2021/12/18 03:43:00;;;;;;;9.88;5.55;;;5.70;99.90;;;5.53;80.16;103182.19;4963295;28;20228;-67
2021/12/18 03:45:28;;;;;;;7.55;5.32;;;5.60;99.90;;;5.50;81.04;103176.19;4963765;28;20219;-67
2021/12/18 03:47:57;;;;;;;8.48;5.43;;;5.50;99.90;;;5.74;80.59;103176.19;4964145;28;20191;-67
2021/12/18 03:50:25;;;;;;;8.13;5.63;;;5.60;99.90;;;5.78;80.51;103164.22;4964635;28;20235;-69
2021/12/18 03:52:55;;;;;;;8.65;5.63;;;5.60;99.90;;;5.78;80.14;103174.97;4963678;28;20286;-68
2021/12/18 03:55:26;;;;;;;8.75;6.97;;;5.70;99.90;;;5.77;80.72;103167.88;4963772;28;20212;-67
2021/12/18 03:57:55;;;;;;;7.15;4.88;;;5.60;99.90;;;5.83;80.13;103173.66;4964560;28;20622;-67
2021/12/18 04:00:23;;;;;;;6.47;5.70;;;5.70;99.90;;;5.74;80.10;103171.66;4964009;28;20196;-68
2021/12/18 04:02:52;;;;;;;7.97;5.43;;;5.70;99.90;;;5.81;80.58;103174.75;4963813;28;20284;-68
2021/12/18 04:05:21;;;;;;;7.88;5.47;;;5.70;99.90;;;5.69;80.58;103174.69;4963905;28;20222;-67
2021/12/18 04:07:49;;;;;;;8.68;6.20;;;5.70;99.90;;;5.87;79.97;103176.97;4963339;28;20200;-67
2021/12/18 04:10:19;;;;;;;9.25;5.30;;;5.80;99.90;;;5.79;80.32;103182.06;4964064;28;20192;-68
2021/12/18 04:12:58;;;;;;;6.88;4.75;;;5.80;99.90;;;5.98;80.01;103179.72;4956695;28;20200;-67
2021/12/18 04:15:26;;;;;;;8.70;5.60;;;5.90;99.90;;;5.98;79.72;103177.03;4955078;28;20212;-67
2021/12/18 04:17:54;;;;;;;10.48;6.57;;;5.90;99.90;;;5.84;80.58;103178.06;4955232;28;20192;-67
2021/12/18 04:20:23;;;;;;;7.15;5.03;;;5.80;99.90;;;5.90;80.19;103179.47;4955252;28;20191;-68
2021/12/18 04:22:52;;;;;;;7.97;5.05;;;5.90;99.90;;;6.00;80.04;103175.94;4953522;29;20614;-67
2021/12/18 04:25:21;;;;;;;7.57;5.80;;;5.90;99.90;;;6.05;80.44;103175.59;4954864;28;20212;-68
2021/12/18 04:27:51;;;;;;;6.55;4.82;;;6.00;99.90;;;6.03;80.13;103166.78;4955211;28;20254;-67
2021/12/18 04:30:19;;;;;;;6.57;4.57;;;6.00;99.90;;;6.08;79.76;103173.53;4969992;28;20196;-69
2021/12/18 04:32:49;;;;;;;6.35;4.90;;;6.00;99.90;;;5.92;80.72;103174.81;4955907;28;20188;-68
2021/12/18 04:35:18;;;;;;;7.07;5.13;;;5.90;99.90;;;6.02;79.67;103165.06;4955158;28;20212;-68
2021/12/18 04:37:46;;;;;;;5.15;4.45;;;5.90;99.90;;;5.94;80.28;103164.81;4955515;28;20257;-69
2021/12/18 04:40:14;;;;;;;6.05;4.45;;;5.90;99.90;;;5.98;79.85;103167.16;4954763;28;20196;-68
2021/12/18 04:42:43;;;;;;;7.57;5.40;;;5.90;99.90;;;5.92;80.17;103167.59;4954657;28;20192;-67
2021/12/18 04:45:12;;;;;;;7.68;5.68;;;5.90;99.90;;;5.92;80.67;103169.44;4969323;28;20642;-66
2021/12/18 04:47:41;;;;;;;7.65;5.60;;;5.90;99.90;;;5.81;80.64;103174.75;4955026;28;20604;-68
2021/12/18 04:50:10;;;;;;;6.97;4.57;;;5.80;99.90;;;5.79;80.69;103176.69;4956501;28;20219;-67
2021/12/18 04:52:38;;;;;;;9.05;5.60;;;5.80;99.90;;;5.64;81.30;103179.56;4958445;28;20288;-67
2021/12/18 04:55:10;;;;;;;7.85;4.50;;;5.70;99.90;;;5.64;81.43;103171.50;4955900;29;20767;-68
2021/12/18 04:57:38;;;;;;;6.25;4.25;;;5.70;99.90;;;5.78;81.11;103170.44;4956840;28;20196;-67
2021/12/18 05:00:14;;;;;;;6.93;4.97;;;5.70;99.90;;;5.71;81.16;103168.34;4957331;28;20549;-68
2021/12/18 05:02:44;;;;;;;7.15;4.80;;;5.70;99.90;;;5.81;81.39;103164.00;4958148;28;20190;-67
2021/12/18 05:05:15;;;;;;;7.47;4.97;;;5.80;99.90;;;5.82;81.14;103160.31;4954441;28;20230;-67
2021/12/18 05:07:44;;;;;;;6.07;3.60;;;5.80;99.90;;;5.72;81.62;103153.94;4954420;28;20188;-67
2021/12/18 05:10:14;;;;;;;7.03;4.72;;;5.70;99.90;;;5.86;80.85;103151.03;4954188;28;20188;-66
2021/12/18 05:12:42;;;;;;;5.32;3.38;;;5.80;99.90;;;5.68;81.34;103156.84;4953914;28;20661;-67
2021/12/18 05:15:12;;;;;;;7.05;4.65;;;5.70;99.90;;;5.74;81.59;103162.75;4953739;28;20567;-67
2021/12/18 05:17:40;;;;;;;4.97;3.28;;;5.70;99.90;;;5.66;81.66;103166.84;4953928;28;20184;-68
2021/12/18 05:20:10;;;;;;;5.07;3.65;;;5.70;99.90;;;5.95;81.29;103161.16;4953708;28;20276;-66
2021/12/18 05:22:39;;;;;;;6.25;4.20;;;5.80;99.90;;;5.92;81.47;103172.13;4953864;28;20188;-68
2021/12/18 05:25:08;;;;;;;4.47;3.67;;;5.80;99.90;;;6.07;81.13;103160.19;4952183;29;20216;-66
2021/12/18 05:27:37;;;;;;;5.78;4.70;;;5.90;99.90;;;5.90;80.96;103166.03;4953875;28;20250;-68
2021/12/18 05:30:10;;;;;;;5.07;3.15;;;5.90;99.90;;;5.63;81.70;103164.41;4953811;28;20542;-68
2021/12/18 05:32:40;;;;;;;7.10;3.55;;;5.80;99.90;;;5.65;81.33;103164.28;4954356;28;20184;-67
2021/12/18 05:35:09;;;;;;;5.07;3.90;;;5.70;99.90;;;5.45;82.13;103156.88;4951819;29;20214;-67
2021/12/18 05:37:47;;;;;;;7.45;4.65;;;5.50;99.90;;;5.62;81.82;103165.38;4953693;28;20196;-68
2021/12/18 05:40:20;;;;;;;5.57;3.85;;;5.60;99.90;;;5.67;82.15;103165.88;4953822;28;20187;-67
2021/12/18 05:42:50;;;;;;;4.30;2.92;;;5.60;99.90;;;5.62;81.82;103160.00;4953642;28;20276;-67
2021/12/18 05:45:20;;;;;;;4.75;3.75;;;5.60;99.90;;;5.55;81.45;103161.44;4953242;28;20271;-67
2021/12/18 05:47:50;;;;;;;7.05;3.78;;;5.60;99.90;;;5.77;82.23;103157.97;4953442;28;20184;-68
2021/12/18 05:50:21;;;;;;;4.43;3.25;;;5.70;99.90;;;5.64;82.04;103163.44;4953352;28;20685;-68
2021/12/18 05:52:50;;;;;;;3.30;2.80;;;5.70;99.90;;;5.71;82.08;103162.97;4953435;28;20665;-68
2021/12/18 05:55:20;;;;;;;4.65;3.22;;;5.60;99.90;;;5.78;81.96;103164.22;4953194;28;20632;-68
2021/12/18 05:57:48;;;;;;;5.95;3.20;;;5.70;99.90;;;5.92;81.94;103154.16;4953415;28;20181;-66
2021/12/18 06:00:19;;;;;;;4.13;2.85;;;5.80;99.90;;;5.99;81.10;103157.25;4953468;28;20561;-67
2021/12/18 06:02:49;;;;;;;4.00;2.53;;;5.90;99.90;;;5.79;81.69;103155.19;4953590;28;20196;-69
2021/12/18 06:05:18;;;;;;;4.70;3.00;;;5.80;99.90;;;5.85;81.23;103154.72;4983430;23;20272;-70
2021/12/18 06:07:55;;;;;;;3.15;2.70;;;5.80;99.90;;;5.74;81.68;103152.00;4924876;29;20196;-70
2021/12/18 06:10:27;;;;;;;3.13;2.70;;;5.80;99.90;;;5.68;81.32;103148.78;4900778;29;20621;-68
2021/12/18 06:12:57;;;;;;;3.58;2.67;;;5.70;99.90;;;5.72;81.74;103148.56;4899303;29;20190;-68
2021/12/18 06:15:26;;;;;;;4.50;2.92;;;5.70;99.90;;;5.67;81.81;103152.44;4904468;29;20209;-68
2021/12/18 06:17:56;;;;;;;3.30;2.78;;;5.70;99.90;;;5.78;81.42;103150.78;4918476;29;20193;-68
2021/12/18 06:20:27;;;;;;;6.13;3.40;;;5.70;99.90;;;5.87;81.93;103142.06;4918373;29;20197;-70
2021/12/18 06:22:57;;;;;;;6.13;3.92;;;5.80;99.90;;;5.87;81.13;103136.69;4917255;29;20232;-69
2021/12/18 06:25:25;;;;;;;5.50;3.35;;;5.80;99.90;;;5.76;82.03;103133.94;4916409;29;20272;-69
2021/12/18 06:27:54;;;;;;;4.47;3.80;;;5.80;99.90;;;5.83;81.39;103140.53;4915641;29;20197;-68
2021/12/18 06:30:23;;;;;;;4.28;3.25;;;5.80;99.90;;;6.01;81.94;103144.53;4917359;29;20678;-70
2021/12/18 06:32:51;;;;;;;5.07;4.30;;;5.90;99.90;;;6.03;81.57;103137.22;4916490;29;20182;-69
2021/12/18 06:35:21;;;;;;;5.72;4.05;;;5.90;99.90;;;5.99;81.50;103133.06;4917861;29;20249;-69
2021/12/18 06:37:50;;;;;;;6.10;4.03;;;6.00;99.90;;;5.97;82.04;103137.69;4918984;29;20700;-70
2021/12/18 06:40:21;;;;;;;5.70;4.07;;;5.90;99.90;;;5.80;82.40;103140.78;4918505;29;20197;-68
2021/12/18 06:42:50;;;;;;;5.15;3.67;;;5.90;99.90;;;5.85;82.09;103131.41;4918071;29;20691;-67
2021/12/18 06:45:24;;;;;;;8.38;4.55;;;5.80;99.90;;;5.74;81.62;103135.88;4917206;29;20213;-68
2021/12/18 06:47:53;;;;;;;7.00;4.15;;;5.80;99.90;;;5.68;82.17;103137.19;4919013;29;20190;-67
2021/12/18 06:50:23;;;;;;;6.30;4.97;;;5.70;99.90;;;5.61;82.02;103128.75;4920449;29;20568;-67
2021/12/18 06:52:52;;;;;;;6.22;4.55;;;5.70;99.90;;;5.59;82.54;103124.44;4920054;29;20200;-70
2021/12/18 06:55:20;;;;;;;6.93;4.85;;;5.60;99.90;;;5.67;82.14;103120.22;4919634;29;20229;-70
2021/12/18 06:57:49;;;;;;;6.55;4.50;;;5.70;99.90;;;5.73;82.12;103118.03;4920067;29;20249;-67
2021/12/18 07:00:20;;;;;;;5.57;4.82;;;5.70;99.90;;;5.61;82.61;103119.84;4920634;29;20242;-68
2021/12/18 07:02:49;;;;;;;5.60;4.68;;;5.60;99.90;;;5.74;82.35;103127.81;4920706;29;20213;-69
2021/12/18 07:05:18;;;;;;;6.90;5.20;;;5.70;99.90;;;5.59;82.80;103117.25;4918540;29;20715;-68
2021/12/18 07:07:50;;;;;;;7.90;5.05;;;5.60;99.90;;;5.69;82.75;103123.66;4919016;29;20670;-67
2021/12/18 07:10:19;;;;;;;5.28;4.10;;;5.60;99.90;;;5.65;82.15;103115.94;4918880;29;20194;-68
2021/12/18 07:12:48;;;;;;;4.82;4.10;;;5.60;99.90;;;5.54;82.80;103124.81;4918606;29;20299;-67
2021/12/18 07:15:16;;;;;;;9.23;5.35;;;5.50;99.90;;;5.71;82.94;103114.63;4919135;29;20206;-66
2021/12/18 07:17:45;;;;;;;7.43;5.03;;;5.60;99.90;;;5.92;82.52;103118.38;4918694;29;20281;-67
2021/12/18 07:20:14;;;;;;;4.90;4.18;;;5.70;99.90;;;5.79;82.27;103112.19;4917407;29;20190;-71
2021/12/18 07:22:42;;;;;;;7.45;5.55;;;5.80;99.90;;;5.81;82.50;103115.63;4918569;29;20582;-70
2021/12/18 07:25:13;;;;;;;6.30;4.68;;;5.80;99.90;;;5.81;82.17;103107.56;4919725;29;20843;-70
2021/12/18 07:27:43;;;;;;;6.38;4.30;;;5.80;99.90;;;5.65;82.50;103100.69;4918514;29;20295;-67
2021/12/18 07:30:13;;;;;;;5.03;4.07;;;5.70;99.90;;;5.68;82.62;103100.44;4918702;29;20197;-68
2021/12/18 07:32:42;;;;;;;5.05;4.40;;;5.70;99.90;;;5.85;82.47;103101.00;4919047;29;20528;-69
2021/12/18 07:35:12;;;;;;;5.63;3.65;;;5.70;99.90;;;5.81;81.58;103104.88;4920092;29;20222;-69
2021/12/18 07:37:41;;;;;;;5.13;4.10;;;5.80;99.90;;;5.71;81.68;103103.88;4919450;29;20205;-68
2021/12/18 07:40:12;;;;;;;5.45;4.20;;;5.70;99.90;;;5.73;81.90;103096.53;4918794;29;20186;-69
2021/12/18 07:42:41;;;;;;;4.10;3.13;;;5.70;99.90;;;5.77;82.25;103103.38;4918216;29;20197;-68
2021/12/18 07:45:13;;;;;;;5.32;3.80;;;5.70;99.90;;;5.69;82.40;103096.78;4918501;29;20300;-69
2021/12/18 07:47:41;;;;;;;4.60;3.53;;;5.70;99.90;;;5.83;82.04;103105.59;4920394;29;20173;-68
2021/12/18 07:50:18;;;;;;;5.30;3.72;;;5.70;99.90;;;5.83;82.45;103098.41;4919122;29;20198;-67
2021/12/18 07:52:46;;;;;;;6.40;4.47;;;5.80;99.90;;;5.92;82.00;103096.88;4918437;29;20205;-68
2021/12/18 07:55:18;;;;;;;5.07;3.67;;;5.80;99.90;;;6.03;81.55;103094.22;4918647;29;20703;-68
2021/12/18 07:57:46;;;;;;;4.15;3.67;;;5.90;99.90;;;5.89;81.80;103086.38;4919394;29;20209;-68
2021/12/18 08:00:16;;;;;;;5.68;3.60;;;5.90;99.90;;;5.88;81.95;103079.28;4919797;29;20205;-70
2021/12/18 08:02:45;;;;;;;5.47;4.30;;;5.80;99.90;;;5.94;81.76;103076.13;4919808;29;20178;-70
2021/12/18 08:05:15;;;;;;;4.72;3.75;;;5.90;99.90;;;5.64;81.90;103074.78;4920417;29;20224;-68
2021/12/18 08:07:44;;;;;;;5.03;3.95;;;5.70;99.90;;;5.68;81.87;103073.56;4936453;29;20228;-69
2021/12/18 08:10:13;;;;;;;4.35;3.50;;;5.70;99.90;;;5.65;82.18;103078.34;4920921;29;20254;-67
2021/12/18 08:12:43;;;;;;;5.80;4.45;;;5.60;99.90;;;5.62;82.14;103078.53;4921494;29;20248;-68
2021/12/18 08:15:11;;;;;;;4.28;3.63;;;5.60;99.90;;;5.60;82.09;103081.38;4935133;29;20585;-68
2021/12/18 08:17:40;;;;;;;5.10;3.85;;;5.60;99.90;;;5.59;81.63;103076.09;4928395;29;20212;-68
2021/12/18 08:20:11;;;;;;;3.72;2.83;;;5.50;99.90;;;5.57;81.63;103070.84;4920804;29;20197;-68
2021/12/18 08:22:39;;;;;;;5.57;3.70;;;5.50;99.90;;;5.50;82.08;103066.91;4922319;29;20210;-68
2021/12/18 08:25:09;;;;;;;5.72;4.15;;;5.50;99.90;;;5.47;82.10;103069.81;4920288;29;20284;-69
2021/12/18 08:27:37;;;;;;;7.55;4.43;;;5.50;99.90;;;5.53;82.25;103069.38;4920461;29;20185;-69
2021/12/18 08:30:09;;;;;;;4.85;3.78;;;5.50;99.90;;;5.51;82.77;103068.66;4920798;29;20667;-68
2021/12/18 08:32:40;;;;;;;5.68;4.43;;;5.50;99.90;;;5.58;82.36;103064.50;4916267;29;20241;-69
2021/12/18 08:35:10;;;;;;;7.97;4.20;;;5.50;99.90;;;5.58;81.92;103064.50;4917833;29;20702;-68
2021/12/18 08:37:38;;;;;;;2.80;2.30;;;5.50;99.90;;;5.57;80.78;103067.28;4916743;29;20206;-69
2021/12/18 08:40:10;;;;;;;2.90;2.25;;;5.50;99.90;;;5.57;80.51;103076.22;4917359;29;20583;-70
2021/12/18 08:42:40;;;;;;;5.70;3.20;;;5.50;99.90;;;5.66;80.30;103072.81;4917827;29;20633;-69
2021/12/18 08:45:11;;;;;;;3.60;2.85;;;5.60;99.90;;;5.65;80.16;103072.97;4917933;29;20217;-68
2021/12/18 08:47:41;;;;;;;5.28;2.40;;;5.60;99.90;;;5.54;80.43;103064.84;4917342;29;20217;-69
2021/12/18 08:50:13;;;;;;;2.20;1.80;;;5.50;99.90;;;5.59;80.83;103068.91;4917968;29;20596;-69
2021/12/18 08:52:41;;;;;;;3.70;2.60;;;5.50;99.90;;;5.80;80.55;103070.94;4917719;29;20281;-67
2021/12/18 08:55:11;;;;;;;3.55;2.65;;;5.70;99.90;;;5.77;80.95;103071.13;4917298;29;20277;-69
2021/12/18 08:57:40;;;;;;;4.63;2.90;;;5.60;99.90;;;5.77;80.35;103076.50;4917343;29;20202;-70
2021/12/18 09:00:16;;;;;;;3.65;2.72;;;5.70;99.90;;;5.89;80.42;103078.31;4917432;29;20564;-67
2021/12/18 09:02:48;;;;;;;2.40;2.08;;;5.80;99.90;;;5.84;80.69;103070.56;4917701;29;20181;-68
2021/12/18 09:05:17;;;;;;;3.58;2.92;;;5.80;99.90;;;5.64;80.94;103077.47;4917255;29;20229;-67
2021/12/18 09:07:46;;;;;;;3.80;2.53;;;5.70;99.90;;;5.65;81.07;103072.97;4917107;29;20193;-69
2021/12/18 09:10:15;;;;;;;4.30;3.13;;;5.70;99.90;;;5.86;80.72;103075.81;4916021;29;20236;-69
2021/12/18 09:12:45;;;;;;;4.28;2.83;;;5.80;99.90;;;6.02;80.58;103066.47;4916489;29;20221;-68
2021/12/18 09:15:15;;;;;;;5.00;4.50;;;5.80;99.90;;;6.03;80.51;103067.34;4917169;29;20253;-69
2021/12/18 09:17:43;;;;;;;6.20;4.90;;;5.90;99.90;;;6.03;80.44;103072.72;4916552;29;20217;-67
2021/12/18 09:20:13;;;;;;;4.80;3.90;;;5.90;99.90;;;6.09;80.12;103069.56;4917098;29;20579;-70
2021/12/18 09:22:42;;;;;;;9.02;4.60;;;6.00;99.90;;;6.08;80.40;103057.06;4917087;29;20204;-70
2021/12/18 09:25:14;;;;;;;6.28;3.95;;;6.00;99.90;;;6.29;80.41;103058.09;4916646;29;20217;-68
2021/12/18 09:27:43;;;;;;;5.88;4.80;;;6.10;99.90;;;6.34;80.21;103049.66;4918067;29;20240;-68
2021/12/18 09:30:15;;;;;;;5.55;4.28;;;6.20;99.90;;;6.30;80.31;103054.41;4917866;29;20189;-69
2021/12/18 09:32:45;;;;;;;6.03;5.38;;;6.10;99.90;;;6.52;80.03;103054.41;4916657;29;20189;-67
2021/12/18 09:35:13;;;;;;;5.50;4.75;;;6.30;99.90;;;6.50;79.98;103047.41;4916751;29;20241;-69
2021/12/18 09:37:43;;;;;;;5.63;4.78;;;6.40;99.90;;;6.42;80.02;103058.81;4917639;29;20276;-69
2021/12/18 09:40:13;;;;;;;6.68;5.40;;;6.40;99.90;;;6.46;80.36;103057.59;4917403;29;20188;-68
2021/12/18 09:42:42;;;;;;;5.72;4.68;;;6.40;99.90;;;6.40;81.33;103049.13;4916795;29;20197;-70
2021/12/18 09:45:12;;;;;;;6.15;4.63;;;6.30;99.90;;;6.36;80.78;103053.91;4917290;29;20245;-68
2021/12/18 09:47:43;;;;;;;5.75;4.45;;;6.30;99.90;;;6.48;80.90;103052.94;4916884;29;20609;-68
2021/12/18 09:50:13;;;;;;;3.85;3.25;;;6.40;99.90;;;6.25;81.11;103039.59;4918124;29;20197;-69
2021/12/18 09:52:42;;;;;;;6.68;5.68;;;6.30;99.90;;;6.20;81.70;103036.41;4919415;29;20177;-67
2021/12/18 09:55:12;;;;;;;8.13;7.40;;;6.20;99.90;;;6.15;82.10;103039.47;4930720;29;20220;-69
2021/12/18 09:57:41;;;;;;;8.43;7.63;;;6.20;99.90;;;6.28;81.98;103037.53;4952916;28;20187;-69
2021/12/18 10:00:15;;;;;;;4.45;3.80;;;6.20;99.90;;;6.03;81.85;103029.69;4953150;28;20200;-70
2021/12/18 10:02:45;;;;;;;6.88;5.28;;;6.10;99.90;;;6.14;82.33;103037.78;4959375;28;20645;-68
2021/12/18 10:05:25;;;;;;;7.32;5.57;;;6.10;99.90;;;6.12;82.10;103034.34;4959422;28;20226;-68
2021/12/18 10:08:15;;;;;;;6.85;4.53;;;6.10;99.90;;;5.97;82.86;103022.97;4957395;28;20211;-68
2021/12/18 10:11:09;;;;;;;7.82;4.05;;;6.00;99.90;;;6.10;81.90;103021.00;4958061;28;20185;-70
2021/12/18 10:13:58;;;;;;;5.85;3.80;;;6.00;99.90;;;6.08;82.11;103022.13;4954846;29;20287;-69
2021/12/18 10:16:30;;;;;;;7.80;3.95;;;6.00;99.90;;;6.13;82.41;103014.56;4955627;28;20254;-70
2021/12/18 10:19:01;;;;;;;5.40;4.25;;;6.00;99.90;;;6.14;81.97;103010.91;4955707;28;20212;-68
2021/12/18 10:21:31;;;;;;;6.47;5.15;;;6.10;99.90;;;6.25;81.88;103005.50;4955401;28;20259;-69
2021/12/18 10:24:17;;;;;;;6.80;5.25;;;6.10;99.90;;;6.37;82.14;103007.22;4960074;28;20232;-69
2021/12/18 10:26:45;;;;;;;8.68;5.82;;;6.30;99.90;;;6.52;80.97;103008.66;4960977;28;20218;-68
2021/12/18 10:29:31;;;;;;;9.65;6.93;;;6.30;99.90;;;6.43;81.32;102993.28;4961242;28;20188;-69
2021/12/18 10:32:10;;;;;;;4.50;3.45;;;6.40;99.90;;;6.44;80.78;102997.66;4960820;28;20181;-70
2021/12/18 10:34:42;;;;;;;5.18;3.90;;;6.40;99.90;;;6.41;81.42;102994.38;4957695;28;20204;-66
2021/12/18 10:37:19;;;;;;;6.18;4.65;;;6.40;99.90;;;6.33;81.69;102999.53;4952705;29;20206;-69
2021/12/18 10:40:02;;;;;;;9.25;6.47;;;6.30;99.90;;;6.49;81.02;102982.00;4958887;28;20220;-69
2021/12/18 10:42:34;;;;;;;6.57;4.65;;;6.40;99.90;;;6.50;80.75;102974.78;4941670;28;20196;-69
2021/12/18 10:45:17;;;;;;;5.88;5.22;;;6.50;99.90;;;6.52;81.21;102979.09;4946911;29;20701;-71
2021/12/18 10:48:00;;;;;;;4.38;3.70;;;6.50;99.90;;;6.66;81.20;102974.41;4939316;29;20189;-69
2021/12/18 10:50:40;;;;;;;8.23;6.15;;;6.50;99.90;;;6.78;80.76;102963.47;4950763;29;20276;-67
2021/12/18 10:53:14;;;;;;;4.28;3.65;;;6.60;99.90;;;6.66;80.49;102963.63;4947178;29;20192;-70
2021/12/18 10:55:50;;;;;;;6.22;3.65;;;6.60;99.90;;;6.71;80.59;102958.72;4950240;29;20235;-71
2021/12/18 10:58:25;;;;;;;5.78;4.60;;;6.60;99.90;;;6.71;80.39;102959.59;4945975;29;20795;-70
2021/12/18 11:00:58;;;;;;;3.22;2.65;;;6.60;99.90;;;6.72;80.12;102947.00;4945361;29;20192;-70
2021/12/18 11:03:36;;;;;;;4.50;3.35;;;6.60;99.90;;;6.79;80.52;102942.78;4944090;29;20223;-68
2021/12/18 11:06:18;;;;;;;5.03;3.42;;;6.60;99.90;;;6.73;80.64;102938.75;4948039;28;20740;-68
2021/12/18 11:08:58;;;;;;;7.45;4.20;;;6.70;99.90;;;6.83;80.78;102939.72;4938004;29;20200;-69
2021/12/18 11:14:21;;;;;;;6.22;4.30;;;6.70;99.90;;;6.80;80.39;102923.84;4938804;29;20713;-69